createdAt,value
2023-05-20T00:01:12.863Z,71.91
2023-05-20T00:04:15.242Z,71.97
2023-05-20T00:07:17.210Z,71.88
2023-05-20T00:10:18.924Z,71.93
2023-05-20T00:13:20.684Z,72.05
2023-05-20T00:16:22.490Z,72.04
2023-05-20T00:19:24.359Z,72.07
2023-05-20T00:22:26.140Z,72.08
2023-05-20T00:25:28.030Z,72.07
2023-05-20T00:28:30.120Z,72.17
2023-05-20T00:31:31.908Z,72.04
2023-05-20T00:34:33.712Z,72.16
2023-05-20T00:37:35.494Z,72.19
2023-05-20T00:40:37.354Z,72.20
2023-05-20T00:43:39.117Z,72.07
2023-05-20T00:46:41.012Z,72.00
2023-05-20T00:49:50.359Z,71.93
2023-05-20T00:52:54.834Z,72.01
2023-05-20T00:55:56.726Z,71.91
2023-05-20T00:58:58.519Z,71.95
2023-05-20T01:02:01.237Z,71.89
2023-05-20T01:05:03.245Z,72.14
2023-05-20T01:08:05.113Z,72.04
2023-05-20T01:11:10.932Z,72.03
2023-05-20T01:14:17.238Z,72.06
2023-05-20T01:17:20.415Z,72.07
2023-05-20T01:20:22.320Z,72.08
2023-05-20T01:23:32.036Z,72.02
2023-05-20T01:26:37.726Z,72.16
2023-05-20T01:29:41.607Z,72.10
2023-05-20T01:32:47.952Z,72.00
2023-05-20T01:35:49.775Z,71.97
2023-05-20T01:38:53.728Z,72.11
2023-05-20T01:41:56.116Z,72.09
2023-05-20T01:44:58.967Z,72.03
2023-05-20T01:48:02.184Z,72.08
2023-05-20T01:51:04.062Z,72.15
2023-05-20T01:54:05.756Z,72.06
2023-05-20T01:57:07.548Z,72.01
2023-05-20T02:00:10.312Z,72.08
2023-05-20T02:03:19.423Z,71.98
2023-05-20T02:06:21.255Z,72.04
2023-05-20T02:09:23.049Z,72.07
2023-05-20T02:12:27.238Z,72.02
2023-05-20T02:15:29.095Z,72.00
2023-05-20T02:18:32.120Z,71.97
2023-05-20T02:21:34.701Z,72.05
2023-05-20T02:24:36.509Z,72.18
2023-05-20T02:27:40.036Z,72.03
2023-05-20T02:30:41.729Z,72.16
2023-05-20T02:33:44.292Z,72.15
2023-05-20T02:36:46.205Z,72.15
2023-05-20T02:39:48.066Z,72.24
2023-05-20T02:42:50.025Z,72.17
2023-05-20T02:45:51.857Z,72.19
2023-05-20T02:48:53.613Z,72.10
2023-05-20T02:51:55.865Z,72.12
2023-05-20T02:54:58.047Z,72.08
2023-05-20T02:58:00.370Z,72.17
2023-05-20T03:01:02.829Z,72.14
2023-05-20T03:04:04.955Z,72.29
2023-05-20T03:07:09.554Z,72.29
2023-05-20T03:10:11.371Z,72.32
2023-05-20T03:13:14.705Z,72.34
2023-05-20T03:16:16.667Z,72.31
2023-05-20T03:19:19.220Z,72.31
2023-05-20T03:22:21.161Z,72.33
2023-05-20T03:25:24.561Z,72.40
2023-05-20T03:28:26.337Z,72.53
2023-05-20T03:31:28.896Z,72.51
2023-05-20T03:34:30.695Z,72.65
2023-05-20T03:37:32.447Z,72.54
2023-05-20T03:40:34.224Z,72.62
2023-05-20T03:43:35.974Z,72.57
2023-05-20T03:46:37.859Z,72.67
2023-05-20T03:49:40.601Z,72.73
2023-05-20T03:52:42.319Z,72.74
2023-05-20T03:55:44.277Z,72.72
2023-05-20T03:58:47.108Z,72.78
2023-05-20T04:01:48.932Z,72.79
2023-05-20T04:04:57.061Z,72.86
2023-05-20T04:07:59.856Z,72.90
2023-05-20T04:11:02.098Z,72.90
2023-05-20T04:14:03.925Z,72.97
2023-05-20T04:17:05.739Z,72.97
2023-05-20T04:20:08.097Z,73.13
2023-05-20T04:23:10.723Z,73.06
2023-05-20T04:26:12.689Z,73.15
2023-05-20T04:29:15.520Z,73.19
2023-05-20T04:32:18.831Z,73.24
2023-05-20T04:35:21.033Z,73.27
2023-05-20T04:38:29.588Z,73.33
2023-05-20T04:41:31.627Z,73.28
2023-05-20T04:44:33.849Z,73.44
2023-05-20T04:47:38.069Z,73.35
2023-05-20T04:50:41.265Z,73.65
2023-05-20T04:53:46.031Z,73.50
2023-05-20T04:56:47.992Z,73.60
2023-05-20T04:59:49.746Z,73.58
2023-05-20T05:02:51.624Z,73.72
2023-05-20T05:05:57.712Z,73.73
2023-05-20T05:08:59.625Z,73.72
2023-05-20T05:12:02.187Z,73.86
2023-05-20T05:15:04.623Z,73.83
2023-05-20T05:18:06.527Z,73.78
2023-05-20T05:21:08.762Z,73.79
2023-05-20T05:24:10.998Z,73.80
2023-05-20T05:27:13.001Z,73.91
2023-05-20T05:30:14.761Z,74.04
2023-05-20T05:33:16.990Z,73.86
2023-05-20T05:36:19.014Z,74.02
2023-05-20T05:39:21.119Z,74.05
2023-05-20T05:42:22.978Z,74.07
2023-05-20T05:45:24.950Z,74.19
2023-05-20T05:48:26.768Z,74.24
2023-05-20T05:51:28.667Z,74.28
2023-05-20T05:54:30.616Z,74.23
2023-05-20T05:57:32.527Z,74.15
2023-05-20T06:00:34.430Z,74.12
2023-05-20T06:03:36.743Z,74.27
2023-05-20T06:06:38.552Z,74.21
2023-05-20T06:09:40.299Z,74.14
2023-05-20T06:12:42.815Z,74.19
2023-05-20T06:15:45.639Z,74.11
2023-05-20T06:18:49.729Z,74.28
2023-05-20T06:21:51.558Z,74.10
2023-05-20T06:24:56.076Z,74.06
2023-05-20T06:27:57.897Z,74.11
2023-05-20T06:31:00.225Z,74.14
2023-05-20T06:34:04.991Z,74.21
2023-05-20T06:37:06.845Z,74.33
2023-05-20T06:40:09.358Z,74.22
2023-05-20T06:43:11.631Z,74.29
2023-05-20T06:46:28.391Z,74.28
2023-05-20T06:49:35.260Z,74.15
2023-05-20T06:52:37.162Z,74.27
2023-05-20T06:55:39.172Z,74.30
2023-05-20T06:58:41.901Z,74.32
2023-05-20T07:01:44.085Z,74.37
2023-05-20T07:04:46.857Z,74.33
2023-05-20T07:07:48.831Z,74.35
2023-05-20T07:10:50.942Z,74.48
2023-05-20T07:13:55.830Z,74.37
2023-05-20T07:16:59.344Z,74.36
2023-05-20T07:20:03.626Z,74.44
2023-05-20T07:23:05.676Z,74.40
2023-05-20T07:26:14.623Z,74.28
2023-05-20T07:29:16.450Z,74.36
2023-05-20T07:32:19.470Z,74.42
2023-05-20T07:35:21.229Z,74.57
2023-05-20T07:38:23.027Z,74.56
2023-05-20T07:41:34.606Z,74.55
2023-05-20T07:44:36.564Z,74.47
2023-05-20T07:47:39.476Z,74.39
2023-05-20T07:50:41.265Z,74.47
2023-05-20T07:53:43.311Z,74.51
2023-05-20T07:56:45.719Z,74.38
2023-05-20T07:59:48.029Z,74.36
2023-05-20T08:02:50.733Z,74.42
2023-05-20T08:05:56.963Z,74.29
2023-05-20T08:08:59.519Z,74.16
2023-05-20T08:12:05.519Z,74.25
2023-05-20T08:15:07.578Z,74.30
2023-05-20T08:18:10.361Z,74.32
2023-05-20T08:21:13.371Z,74.37
2023-05-20T08:24:15.396Z,74.34
2023-05-20T08:27:17.111Z,74.24
2023-05-20T08:30:19.116Z,74.16
2023-05-20T08:33:21.994Z,74.28
2023-05-20T08:36:24.067Z,74.10
2023-05-20T08:39:26.642Z,74.22
2023-05-20T08:42:31.020Z,74.18
2023-05-20T08:45:37.368Z,74.05
2023-05-20T08:48:41.869Z,73.97
2023-05-20T08:51:45.594Z,73.91
2023-05-20T08:54:49.229Z,73.74
2023-05-20T08:57:51.341Z,73.57
2023-05-20T09:00:53.041Z,73.59
2023-05-20T09:03:54.831Z,73.69
2023-05-20T09:06:56.595Z,73.74
2023-05-20T09:09:58.361Z,73.57
2023-05-20T09:13:02.126Z,73.57
2023-05-20T09:16:04.300Z,73.68
2023-05-20T09:19:06.916Z,73.62
2023-05-20T09:22:09.222Z,73.66
2023-05-20T09:25:12.690Z,73.55
2023-05-20T09:28:14.377Z,73.59
2023-05-20T09:31:16.525Z,73.50
2023-05-20T09:34:20.012Z,73.59
2023-05-20T09:37:22.107Z,73.63
2023-05-20T09:40:28.275Z,73.57
2023-05-20T09:43:30.819Z,73.48
2023-05-20T09:46:33.892Z,73.43
2023-05-20T09:49:37.720Z,73.41
2023-05-20T09:52:39.503Z,73.01
2023-05-20T09:55:41.970Z,73.12
2023-05-20T09:58:45.254Z,72.99
2023-05-20T10:01:49.773Z,73.34
2023-05-20T10:04:54.033Z,73.24
2023-05-20T10:08:11.230Z,73.18
2023-05-20T10:11:48.127Z,73.08
2023-05-20T10:15:23.596Z,72.75
2023-05-20T10:18:40.506Z,72.84
2023-05-20T10:21:43.731Z,72.70
2023-05-20T10:24:45.608Z,72.58
2023-05-20T10:27:47.965Z,72.52
2023-05-20T10:30:50.526Z,72.50
2023-05-20T10:33:53.321Z,72.24
2023-05-20T10:36:55.232Z,72.03
2023-05-20T10:40:10.993Z,71.99
2023-05-20T10:43:13.974Z,72.12
2023-05-20T10:46:31.836Z,71.78
2023-05-20T10:49:47.759Z,71.58
2023-05-20T10:52:49.677Z,71.51
2023-05-20T10:55:52.801Z,71.39
2023-05-20T10:58:55.451Z,71.29
2023-05-20T11:01:57.483Z,71.43
2023-05-20T11:05:00.282Z,71.32
2023-05-20T11:08:08.539Z,71.11
2023-05-20T11:11:22.342Z,71.07
2023-05-20T11:14:24.384Z,70.37
2023-05-20T11:17:26.191Z,70.04
2023-05-20T11:20:28.295Z,69.80
2023-05-20T11:23:30.326Z,69.82
2023-05-20T11:26:32.732Z,69.85
2023-05-20T11:29:34.752Z,69.47
2023-05-20T11:32:36.696Z,69.30
2023-05-20T11:35:51.297Z,68.88
2023-05-20T11:38:53.063Z,68.61
2023-05-20T11:41:55.130Z,68.28
2023-05-20T11:45:01.221Z,68.31
2023-05-20T11:48:05.286Z,68.14
2023-05-20T11:51:07.992Z,68.30
2023-05-20T11:54:10.095Z,68.29
2023-05-20T11:57:11.730Z,68.03
2023-05-20T12:00:13.587Z,67.74
2023-05-20T12:03:15.999Z,67.84
2023-05-20T12:06:17.829Z,67.86
2023-05-20T12:09:19.570Z,67.33
2023-05-20T12:12:21.365Z,67.09
2023-05-20T12:15:25.527Z,66.80
2023-05-20T12:18:27.326Z,66.61
2023-05-20T12:21:30.639Z,66.70
2023-05-20T12:24:32.391Z,66.78
2023-05-20T12:27:34.153Z,66.94
2023-05-20T12:30:36.177Z,67.00
2023-05-20T12:33:38.053Z,66.88
2023-05-20T12:36:39.885Z,66.84
2023-05-20T12:39:41.602Z,66.61
2023-05-20T12:42:43.997Z,66.38
2023-05-20T12:45:46.306Z,66.17
2023-05-20T12:48:48.230Z,66.08
2023-05-20T12:51:50.051Z,66.15
2023-05-20T12:54:53.541Z,65.81
2023-05-20T12:57:55.746Z,66.00
2023-05-20T13:00:57.567Z,65.82
2023-05-20T13:03:59.348Z,65.77
2023-05-20T13:07:01.570Z,65.30
2023-05-20T13:10:03.847Z,65.04
2023-05-20T13:13:05.677Z,65.06
2023-05-20T13:16:07.489Z,65.11
2023-05-20T13:19:09.290Z,64.97
2023-05-20T13:22:11.410Z,64.79
2023-05-20T13:25:13.253Z,64.91
2023-05-20T13:28:18.228Z,64.52
2023-05-20T13:31:20.139Z,64.26
2023-05-20T13:34:21.862Z,64.43
2023-05-20T13:37:23.605Z,64.75
2023-05-20T13:40:25.466Z,64.65
2023-05-20T13:43:28.034Z,64.73
2023-05-20T13:46:29.861Z,64.47
2023-05-20T13:49:31.646Z,64.39
2023-05-20T13:52:33.527Z,64.04
2023-05-20T13:55:35.851Z,64.12
2023-05-20T13:58:38.168Z,63.85
2023-05-20T14:01:44.292Z,63.70
2023-05-20T14:04:46.455Z,63.44
2023-05-20T14:07:48.523Z,63.36
2023-05-20T14:10:54.151Z,63.40
2023-05-20T14:13:55.932Z,63.18
2023-05-20T14:16:58.005Z,63.31
2023-05-20T14:20:00.129Z,63.12
2023-05-20T14:23:01.956Z,63.20
2023-05-20T14:26:03.743Z,62.86
2023-05-20T14:29:05.725Z,62.85
2023-05-20T14:32:08.399Z,62.73
2023-05-20T14:35:10.403Z,62.72
2023-05-20T14:38:12.083Z,62.65
2023-05-20T14:41:13.774Z,62.50
2023-05-20T14:44:15.485Z,62.60
2023-05-20T14:47:21.410Z,62.23
2023-05-20T14:50:23.201Z,62.12
2023-05-20T14:53:25.022Z,61.89
2023-05-20T14:56:26.796Z,61.44
2023-05-20T14:59:28.578Z,61.45
2023-05-20T15:02:30.642Z,61.38
2023-05-20T15:05:32.564Z,61.30
2023-05-20T15:08:34.302Z,61.46
2023-05-20T15:11:36.030Z,61.33
2023-05-20T15:14:37.977Z,61.12
2023-05-20T15:17:39.924Z,61.10
2023-05-20T15:20:41.920Z,60.66
2023-05-20T15:23:43.834Z,60.51
2023-05-20T15:26:46.059Z,60.51
2023-05-20T15:29:48.113Z,60.54
2023-05-20T15:32:50.066Z,60.75
2023-05-20T15:35:51.788Z,60.90
2023-05-20T15:38:53.626Z,60.95
2023-05-20T15:41:55.458Z,61.09
2023-05-20T15:44:57.392Z,60.98
2023-05-20T15:47:59.636Z,60.97
2023-05-20T15:51:01.417Z,60.93
2023-05-20T15:54:03.102Z,60.95
2023-05-20T15:57:05.189Z,60.81
2023-05-20T16:00:09.848Z,60.47
2023-05-20T16:03:11.783Z,60.54
2023-05-20T16:06:13.901Z,60.47
2023-05-20T16:09:15.908Z,60.58
2023-05-20T16:12:18.612Z,60.33
2023-05-20T16:15:20.425Z,60.34
2023-05-20T16:18:23.015Z,60.34
2023-05-20T16:21:25.525Z,60.51
2023-05-20T16:24:27.238Z,60.63
2023-05-20T16:27:29.089Z,60.66
2023-05-20T16:30:30.994Z,60.70
2023-05-20T16:33:32.751Z,60.89
2023-05-20T16:36:34.505Z,60.96
2023-05-20T16:39:36.253Z,61.01
2023-05-20T16:42:39.135Z,60.99
2023-05-20T16:45:40.983Z,60.95
2023-05-20T16:48:42.767Z,61.26
2023-05-20T16:51:44.712Z,61.45
2023-05-20T16:54:46.498Z,61.64
2023-05-20T16:57:49.895Z,61.70
2023-05-20T17:00:51.769Z,61.70
2023-05-20T17:03:53.606Z,61.85
2023-05-20T17:06:56.256Z,61.85
2023-05-20T17:09:57.993Z,61.88
2023-05-20T17:13:01.077Z,62.08
2023-05-20T17:16:03.078Z,62.29
2023-05-20T17:19:04.838Z,62.40
2023-05-20T17:22:06.823Z,62.41
2023-05-20T17:25:08.838Z,62.65
2023-05-20T17:28:10.688Z,62.66
2023-05-20T17:31:13.096Z,62.75
2023-05-20T17:34:14.867Z,63.03
2023-05-20T17:37:16.686Z,63.06
2023-05-20T17:40:20.144Z,63.04
2023-05-20T17:43:24.624Z,63.23
2023-05-20T17:46:26.655Z,63.26
2023-05-20T17:49:28.452Z,63.43
2023-05-20T17:52:30.364Z,63.43
2023-05-20T17:55:35.550Z,63.55
2023-05-20T17:58:37.437Z,63.68
2023-05-20T18:01:39.315Z,63.84
2023-05-20T18:04:41.112Z,64.02
2023-05-20T18:07:43.770Z,64.19
2023-05-20T18:10:46.278Z,64.36
2023-05-20T18:13:48.361Z,64.40
2023-05-20T18:16:50.282Z,64.67
2023-05-20T18:19:52.068Z,64.53
2023-05-20T18:22:57.767Z,64.72
2023-05-20T18:25:59.522Z,64.86
2023-05-20T18:29:01.252Z,64.96
2023-05-20T18:32:03.211Z,64.99
2023-05-20T18:35:06.740Z,65.25
2023-05-20T18:38:08.623Z,65.24
2023-05-20T18:41:10.556Z,65.34
2023-05-20T18:44:13.242Z,65.51
2023-05-20T18:47:16.511Z,65.59
2023-05-20T18:50:21.208Z,65.60
2023-05-20T18:53:23.065Z,65.61
2023-05-20T18:56:25.897Z,65.74
2023-05-20T18:59:27.621Z,65.84
2023-05-20T19:02:29.399Z,66.09
2023-05-20T19:05:31.344Z,66.14
2023-05-20T19:08:33.256Z,66.46
2023-05-20T19:11:35.293Z,66.58
2023-05-20T19:14:37.033Z,66.67
2023-05-20T19:17:38.984Z,66.77
2023-05-20T19:20:40.804Z,66.90
2023-05-20T19:23:42.712Z,66.78
2023-05-20T19:26:44.964Z,66.86
2023-05-20T19:29:46.636Z,66.97
2023-05-20T19:32:48.508Z,67.02
2023-05-20T19:35:50.624Z,67.11
2023-05-20T19:38:52.323Z,66.97
2023-05-20T19:41:54.385Z,67.09
2023-05-20T19:49:28.848Z,67.22
2023-05-20T19:52:31.512Z,67.04
2023-05-20T19:55:35.284Z,66.91
2023-05-20T19:58:37.424Z,66.97
2023-05-20T20:01:39.196Z,66.77
2023-05-20T20:04:44.009Z,66.65
2023-05-20T20:07:45.748Z,66.69
2023-05-20T20:10:48.550Z,66.61
2023-05-20T20:13:53.123Z,66.68
2023-05-20T20:16:54.975Z,66.56
2023-05-20T20:19:57.362Z,66.44
2023-05-20T20:22:59.099Z,66.32
2023-05-20T20:26:01.423Z,66.14
2023-05-20T20:29:03.202Z,66.13
2023-05-20T20:32:05.378Z,66.03
2023-05-20T20:35:07.887Z,66.01
2023-05-20T20:38:09.763Z,65.78
2023-05-20T20:41:17.476Z,65.91
2023-05-20T20:44:22.260Z,65.82
2023-05-20T20:47:28.574Z,65.90
2023-05-20T20:50:31.185Z,65.75
2023-05-20T20:53:32.916Z,65.78
2023-05-20T20:56:38.925Z,65.70
2023-05-20T20:59:46.898Z,65.56
2023-05-20T21:02:48.730Z,65.56
2023-05-20T21:05:51.202Z,65.66
2023-05-20T21:08:57.467Z,65.51
2023-05-20T21:11:59.833Z,65.35
2023-05-20T21:15:01.693Z,65.22
2023-05-20T21:18:03.513Z,65.27
2023-05-20T21:21:09.381Z,65.36
2023-05-20T21:24:11.094Z,65.42
2023-05-20T21:27:13.455Z,65.41
2023-05-20T21:30:16.695Z,65.40
2023-05-20T21:33:18.875Z,65.46
2023-05-20T21:36:20.700Z,65.51
2023-05-20T21:39:22.589Z,65.44
2023-05-20T21:42:24.397Z,65.61
2023-05-20T21:45:26.106Z,65.47
2023-05-20T21:48:27.827Z,65.43
2023-05-20T21:51:30.814Z,65.52
2023-05-20T21:54:32.562Z,65.53
2023-05-20T21:57:34.628Z,65.38
2023-05-20T22:00:36.389Z,65.61
2023-05-20T22:03:39.209Z,65.42
2023-05-20T22:06:41.057Z,65.41
2023-05-20T22:09:42.788Z,65.43
2023-05-20T22:12:45.115Z,65.61
2023-05-20T22:15:46.784Z,65.40
2023-05-20T22:18:49.044Z,65.71
2023-05-20T22:21:51.303Z,65.70
2023-05-20T22:24:53.332Z,65.68
2023-05-20T22:27:55.179Z,65.69
2023-05-20T22:30:57.258Z,65.86
2023-05-20T22:33:59.278Z,65.90
2023-05-20T22:37:02.452Z,65.84
2023-05-20T22:40:04.791Z,65.86
2023-05-20T22:43:06.706Z,66.06
2023-05-20T22:46:08.699Z,66.07
2023-05-20T22:49:12.203Z,66.17
2023-05-20T22:52:14.183Z,66.32
2023-05-20T22:55:15.999Z,66.32
2023-05-20T22:58:18.114Z,66.29
2023-05-20T23:01:20.972Z,66.32
2023-05-20T23:04:22.779Z,66.28
2023-05-20T23:07:24.527Z,66.21
2023-05-20T23:10:26.405Z,66.25
2023-05-20T23:13:28.243Z,66.43
2023-05-20T23:16:31.082Z,66.51
2023-05-20T23:19:33.053Z,66.57
2023-05-20T23:22:34.768Z,66.57
2023-05-20T23:25:36.798Z,66.43
2023-05-20T23:28:38.792Z,66.52
2023-05-20T23:31:40.747Z,66.56
2023-05-20T23:34:42.937Z,66.77
2023-05-20T23:37:45.421Z,66.63
2023-05-20T23:40:48.161Z,66.77
2023-05-20T23:43:50.142Z,66.84
2023-05-20T23:46:53.082Z,66.89
2023-05-20T23:49:59.502Z,66.87
2023-05-20T23:53:01.212Z,67.00
2023-05-20T23:56:03.595Z,67.01
2023-05-20T23:59:06.728Z,66.87
